Weather reports worldwide

Advertisment
Sciacca, Italy (16436): temperature & dewpoint: 15.02.2019 21:00:00 - 21.02.2019 21:00:00 (CET)Sciacca, Italy (16436): wind speed: 15.02.2019 21:00:00 - 21.02.2019 21:00:00 (CET)Sciacca, Italy (16436): wind direction: 15.02.2019 21:00:00 - 21.02.2019 21:00:00 (CET)Sciacca, Italy (16436): reduced air pressure: 15.02.2019 21:00:00 - 21.02.2019 21:00:00 (CET)
Date & Time tt [°C] td [°C] ff [km/h] ff [kn] dd ppp [hPa]
21.02.2019 21:00:00 9,7 7,8 8 4 NNE 1038,1
21.02.2019 20:00:00 9,4 7,8 4 2 NNE 1037,7
21.02.2019 19:00:00 10,6 8,7 8 4 N 1037,4
21.02.2019 18:00:00 12,2 8,8 4 2 W 1036,9
21.02.2019 17:00:00 13,3 10,1 9 5 WSW 1036,9
21.02.2019 16:00:00 13,6 10,7 11 6 WSW 1037,1
21.02.2019 15:00:00 14,0 11,5 13 7 WSW 1036,9
21.02.2019 14:00:00 14,0 11,3 9 5 SSW 1037,2
21.02.2019 13:00:00 13,9 11,0 9 5 WSW 1037,8
21.02.2019 12:00:00 13,7 11,0 8 4 SW 1038,4
21.02.2019 11:00:00 13,5 12,0 2 1 SSW 1038,8
21.02.2019 10:00:00 12,4 12,1 - - - 1038,8
21.02.2019 09:00:00 9,9 9,7 0 0 N 1039,1
21.02.2019 08:00:00 7,5 7,2 0 0 N 1038,6
21.02.2019 07:00:00 6,8 6,5 0 0 N 1038,2
21.02.2019 06:00:00 6,1 5,7 0 0 N 1037,7
21.02.2019 05:00:00 6,1 5,7 0 0 N 1037,4
21.02.2019 04:00:00 6,1 5,5 0 0 N 1037,2
21.02.2019 03:00:00 6,7 6,1 0 0 N 1037,0
21.02.2019 02:00:00 7,1 6,2 0 0 N 1037,1
21.02.2019 01:00:00 8,1 7,2 0 0 N 1036,9
21.02.2019 00:00:00 8,7 7,6 2 1 NNE 1036,4
20.02.2019 23:00:00 9,1 8,2 2 1 NNE 1036,3
20.02.2019 22:00:00 9,1 8,2 0 0 N 1036,2
20.02.2019 21:00:00 10,4 9,3 0 0 N 1035,8
20.02.2019 20:00:00 11,2 10,1 13 7 WNW 1035,3
20.02.2019 19:00:00 11,2 9,9 2 1 WNW 1035,1
20.02.2019 18:00:00 12,5 11,1 5 3 WSW 1034,2
20.02.2019 17:00:00 13,4 11,4 13 7 SW 1033,8
20.02.2019 16:00:00 14,3 11,4 9 5 SW 1033,6
20.02.2019 15:00:00 14,5 10,9 11 6 SW 1033,5
20.02.2019 14:00:00 14,7 10,3 8 4 S 1033,5
20.02.2019 13:00:00 14,7 10,7 9 5 SW 1033,9
20.02.2019 12:00:00 14,6 10,2 5 3 W 1034,6
20.02.2019 11:00:00 14,0 7,9 0 0 N 1034,9
20.02.2019 10:00:00 12,7 11,1 - - - 1035,3
20.02.2019 09:00:00 10,7 10,1 0 0 N 1035,7
20.02.2019 08:00:00 8,0 7,2 0 0 N 1035,3
20.02.2019 07:00:00 7,0 6,1 0 0 N 1034,8
20.02.2019 06:00:00 7,9 7,0 0 0 N 1034,4
20.02.2019 05:00:00 8,2 7,6 0 0 N 1034,2
20.02.2019 04:00:00 8,0 7,5 0 0 N 1034,4
20.02.2019 03:00:00 8,3 7,8 0 0 N 1034,7
20.02.2019 02:00:00 8,7 8,2 0 0 N 1034,8
20.02.2019 01:00:00 9,0 8,5 0 0 N 1035,0
20.02.2019 00:00:00 9,2 8,7 0 0 N 1034,7
19.02.2019 23:00:00 8,8 8,3 0 0 N 1034,6
19.02.2019 22:00:00 8,8 8,3 0 0 N 1034,6
19.02.2019 21:00:00 8,7 8,1 0 0 N 1034,3
19.02.2019 20:00:00 9,1 8,3 0 0 N 1034,0
19.02.2019 19:00:00 10,2 8,8 0 0 N 1033,4
19.02.2019 18:00:00 12,2 9,5 0 0 N 1032,9
19.02.2019 17:00:00 13,7 7,6 0 0 N 1032,7
19.02.2019 16:00:00 14,3 10,5 5 3 S 1033,0
19.02.2019 15:00:00 14,8 10,8 5 3 S 1033,2
19.02.2019 14:00:00 13,4 9,2 2 1 S 1033,8
19.02.2019 13:00:00 13,7 10,8 2 1 SSE 1034,4
19.02.2019 12:00:00 14,3 10,7 5 3 SSE 1035,1
19.02.2019 11:00:00 13,6 11,1 5 3 S 1035,7
19.02.2019 10:00:00 11,7 10,1 - - - 1036,1
19.02.2019 09:00:00 10,3 8,9 0 0 N 1036,2
19.02.2019 08:00:00 9,0 7,9 0 0 N 1035,7
19.02.2019 07:00:00 8,5 7,4 0 0 N 1035,4
19.02.2019 06:00:00 7,7 6,9 0 0 N 1035,3
19.02.2019 05:00:00 7,2 6,6 0 0 N 1035,3
19.02.2019 04:00:00 6,7 6,3 0 0 N 1035,5
19.02.2019 03:00:00 6,5 5,9 0 0 N 1035,9
19.02.2019 02:00:00 6,9 6,1 0 0 N 1036,3
19.02.2019 01:00:00 7,4 6,6 0 0 N 1036,5
19.02.2019 00:00:00 7,5 6,4 0 0 N 1036,5
18.02.2019 23:00:00 8,7 7,1 0 0 N 1036,4
18.02.2019 22:00:00 10,1 8,2 0 0 N 1036,3
18.02.2019 21:00:00 10,9 9,0 0 0 N 1036,2
18.02.2019 20:00:00 10,7 8,9 0 0 N 1035,9
18.02.2019 19:00:00 10,7 8,4 0 0 N 1035,6
18.02.2019 18:00:00 11,5 8,5 2 1 WSW 1035,1
18.02.2019 17:00:00 12,3 8,9 5 3 WSW 1035,0
18.02.2019 16:00:00 13,0 9,8 8 4 SW 1035,3
18.02.2019 15:00:00 13,2 9,6 13 7 NNW 1035,7
18.02.2019 14:00:00 13,3 9,7 13 7 SW 1035,8
18.02.2019 13:00:00 13,4 9,0 11 6 NW 1036,7
18.02.2019 12:00:00 13,4 7,3 11 6 SW 1037,6
18.02.2019 11:00:00 12,9 9,9 0 0 N 1038,3
18.02.2019 10:00:00 11,7 10,1 0 0 N 1038,7
18.02.2019 09:00:00 9,3 9,0 0 0 N 1039,4
18.02.2019 08:00:00 6,2 5,9 0 0 N 1039,7
18.02.2019 07:00:00 5,2 4,8 0 0 N 1039,5
18.02.2019 06:00:00 5,2 4,8 0 0 N 1039,4
18.02.2019 05:00:00 5,6 5,2 0 0 N 1039,1
18.02.2019 04:00:00 5,3 4,7 0 0 N 1039,3
18.02.2019 03:00:00 5,3 4,6 0 0 N 1039,6
18.02.2019 02:00:00 5,6 4,7 0 0 N 1039,7
18.02.2019 01:00:00 5,9 5,0 0 0 N 1039,9
18.02.2019 00:00:00 5,9 4,8 0 0 N 1040,0
17.02.2019 23:00:00 5,9 4,8 0 0 N 1040,2
17.02.2019 22:00:00 7,4 6,3 0 0 N 1040,2
17.02.2019 21:00:00 7,0 5,8 0 0 N 1040,1
17.02.2019 20:00:00 7,9 6,5 0 0 N 1039,8
17.02.2019 19:00:00 8,8 6,4 0 0 N 1039,7
17.02.2019 18:00:00 10,6 5,3 2 1 W 1039,2
17.02.2019 17:00:00 12,3 6,5 9 5 WSW 1039,0
17.02.2019 16:00:00 12,8 8,2 11 6 WSW 1039,0
17.02.2019 15:00:00 13,2 6,2 8 4 SW 1038,9
17.02.2019 14:00:00 13,3 6,6 9 5 SW 1039,3
17.02.2019 13:00:00 13,1 5,9 11 6 SW 1040,0
17.02.2019 12:00:00 12,9 6,0 13 7 SW 1040,6
17.02.2019 11:00:00 12,7 6,0 - - - 1041,2
17.02.2019 10:00:00 11,8 5,1 - - - 1041,8
17.02.2019 09:00:00 10,1 7,3 0 0 N 1042,2
17.02.2019 08:00:00 6,8 4,8 0 0 N 1042,5
17.02.2019 07:00:00 4,7 3,2 0 0 N 1042,0
17.02.2019 06:00:00 5,2 3,2 0 0 N 1041,6
17.02.2019 05:00:00 5,3 3,1 0 0 N 1041,0
17.02.2019 04:00:00 5,5 3,5 0 0 N 1040,9
17.02.2019 03:00:00 6,0 1,8 4 2 N 1040,9
17.02.2019 02:00:00 6,6 3,4 0 0 N 1041,0
17.02.2019 01:00:00 6,2 3,0 0 0 N 1041,3
17.02.2019 00:00:00 9,3 2,8 11 6 N 1041,1
16.02.2019 23:00:00 9,3 3,2 15 8 N 1041,1
16.02.2019 22:00:00 9,6 3,0 16 9 N 1041,1
16.02.2019 21:00:00 9,8 3,2 18 10 N 1040,8
16.02.2019 20:00:00 10,0 3,2 16 9 N 1040,3
16.02.2019 19:00:00 9,4 3,5 8 4 NNE 1039,7
16.02.2019 18:00:00 10,8 3,7 11 6 N 1039,1
16.02.2019 17:00:00 12,5 3,6 13 7 NNE 1038,7
16.02.2019 16:00:00 13,5 5,1 11 6 NNE 1038,5
16.02.2019 15:00:00 12,9 3,5 11 6 NNE 1038,6
16.02.2019 14:00:00 14,0 2,8 11 6 NE 1038,9
16.02.2019 13:00:00 13,6 2,4 24 13 NE 1039,0
16.02.2019 12:00:00 13,3 2,7 18 10 NE 1039,5
16.02.2019 11:00:00 12,7 3,5 21 11 NE 1039,5
16.02.2019 10:00:00 11,3 4,4 - - - 1039,3
16.02.2019 09:00:00 10,4 6,5 0 0 N 1039,8
16.02.2019 08:00:00 8,1 4,6 0 0 N 1039,6
16.02.2019 07:00:00 7,7 4,4 9 5 N 1038,4
16.02.2019 06:00:00 7,4 4,1 5 3 NNW 1038,1
16.02.2019 05:00:00 5,4 3,0 0 0 N 1038,0
16.02.2019 04:00:00 5,5 3,1 0 0 N 1037,5
16.02.2019 03:00:00 6,2 2,0 0 0 N 1037,3
16.02.2019 02:00:00 7,5 1,9 2 1 ESE 1036,9
16.02.2019 01:00:00 8,9 2,6 16 9 ENE 1036,2
16.02.2019 00:00:00 7,9 5,5 5 3 NNE 1035,9
15.02.2019 23:00:00 7,8 4,9 0 0 N 1035,2
15.02.2019 22:00:00 9,6 4,5 5 3 ESE 1035,4
15.02.2019 21:00:00 8,4 2,3 0 0 N 1034,4

tt = temperature
td = dewpoint
ff = wind speed
dd = wind direction
ppp = reduced air pressure

Next stations